sensor_id;sensor_type;location;lat;lon;timestamp;pressure;altitude;pressure_sealevel;temperature;humidity
43934;BME280;59081;42.706;23.306;2023-09-19T00:03:29;95489.00;;;15.15;80.20
43934;BME280;59081;42.706;23.306;2023-09-19T00:08:31;95472.03;;;15.04;80.81
43934;BME280;59081;42.706;23.306;2023-09-19T00:13:33;95472.50;;;15.11;81.16
43934;BME280;59081;42.706;23.306;2023-09-19T00:18:37;95579.53;;;15.71;82.14
43934;BME280;59081;42.706;23.306;2023-09-19T00:23:38;95546.44;;;15.54;81.49
43934;BME280;59081;42.706;23.306;2023-09-19T00:28:41;95506.78;;;15.36;81.76
43934;BME280;59081;42.706;23.306;2023-09-19T00:33:41;95479.91;;;15.05;82.43
43934;BME280;59081;42.706;23.306;2023-09-19T00:38:42;95442.41;;;14.82;82.70
43934;BME280;59081;42.706;23.306;2023-09-19T00:43:44;95473.88;;;15.07;82.76
43934;BME280;59081;42.706;23.306;2023-09-19T00:48:45;95484.06;;;15.10;83.10
43934;BME280;59081;42.706;23.306;2023-09-19T00:53:46;95525.44;;;15.35;83.52
43934;BME280;59081;42.706;23.306;2023-09-19T00:58:47;95524.50;;;15.29;83.90
43934;BME280;59081;42.706;23.306;2023-09-19T01:03:49;95437.13;;;14.66;84.17
43934;BME280;59081;42.706;23.306;2023-09-19T01:08:50;95571.16;;;15.61;84.59
43934;BME280;59081;42.706;23.306;2023-09-19T01:13:58;95553.19;;;15.35;85.02
43934;BME280;59081;42.706;23.306;2023-09-19T01:30:26;95576.03;;;15.39;85.86
43934;BME280;59081;42.706;23.306;2023-09-19T01:35:29;95515.47;;;14.97;86.00
43934;BME280;59081;42.706;23.306;2023-09-19T01:40:30;95565.66;;;15.21;86.91
43934;BME280;59081;42.706;23.306;2023-09-19T01:51:04;95498.50;;;14.86;87.04
43934;BME280;59081;42.706;23.306;2023-09-19T01:56:08;95514.88;;;15.03;86.33
43934;BME280;59081;42.706;23.306;2023-09-19T02:01:16;95488.13;;;14.78;86.14
43934;BME280;59081;42.706;23.306;2023-09-19T02:06:19;95561.16;;;15.24;86.65
43934;BME280;59081;42.706;23.306;2023-09-19T02:11:19;95442.69;;;14.35;87.08
43934;BME280;59081;42.706;23.306;2023-09-19T02:16:20;95577.16;;;15.11;88.31
43934;BME280;59081;42.706;23.306;2023-09-19T02:21:21;95453.81;;;14.44;86.95
43934;BME280;59081;42.706;23.306;2023-09-19T02:26:22;95466.66;;;14.60;87.68
43934;BME280;59081;42.706;23.306;2023-09-19T02:31:24;95493.03;;;14.74;87.40
43934;BME280;59081;42.706;23.306;2023-09-19T02:36:26;95502.91;;;14.75;88.15
43934;BME280;59081;42.706;23.306;2023-09-19T02:41:26;95394.03;;;14.03;88.73
43934;BME280;59081;42.706;23.306;2023-09-19T02:46:29;95450.53;;;14.37;88.76
43934;BME280;59081;42.706;23.306;2023-09-19T02:51:30;95456.13;;;14.46;88.67
43934;BME280;59081;42.706;23.306;2023-09-19T02:56:31;95538.31;;;15.11;88.24
43934;BME280;59081;42.706;23.306;2023-09-19T03:01:32;95515.75;;;14.90;88.16
43934;BME280;59081;42.706;23.306;2023-09-19T03:06:34;95478.66;;;14.57;89.31
43934;BME280;59081;42.706;23.306;2023-09-19T03:11:34;95399.81;;;14.18;88.65
43934;BME280;59081;42.706;23.306;2023-09-19T03:16:35;95417.88;;;14.32;88.13
43934;BME280;59081;42.706;23.306;2023-09-19T03:21:38;95428.31;;;14.27;89.18
43934;BME280;59081;42.706;23.306;2023-09-19T03:26:39;95523.97;;;14.63;90.28
43934;BME280;59081;42.706;23.306;2023-09-19T03:31:39;95369.53;;;13.71;90.69
43934;BME280;59081;42.706;23.306;2023-09-19T03:36:40;95468.97;;;14.52;89.24
43934;BME280;59081;42.706;23.306;2023-09-19T03:41:41;95465.63;;;14.76;88.11
43934;BME280;59081;42.706;23.306;2023-09-19T03:46:42;95422.16;;;14.54;86.95
43934;BME280;59081;42.706;23.306;2023-09-19T03:51:42;95396.88;;;14.21;87.08
43934;BME280;59081;42.706;23.306;2023-09-19T03:56:43;95546.06;;;15.25;86.56
43934;BME280;59081;42.706;23.306;2023-09-19T04:01:45;95394.88;;;14.22;86.59
43934;BME280;59081;42.706;23.306;2023-09-19T04:06:47;95449.38;;;14.56;86.76
43934;BME280;59081;42.706;23.306;2023-09-19T04:11:47;95426.91;;;14.23;86.52
43934;BME280;59081;42.706;23.306;2023-09-19T04:16:50;95503.91;;;15.57;100.00
43934;BME280;59081;42.706;23.306;2023-09-19T04:21:50;95483.59;;;16.39;81.26
43934;BME280;59081;42.706;23.306;2023-09-19T04:26:51;95545.72;;;17.53;79.62
43934;BME280;59081;42.706;23.306;2023-09-19T04:31:52;95529.06;;;17.68;73.73
43934;BME280;59081;42.706;23.306;2023-09-19T04:36:53;95515.75;;;18.11;74.27
43934;BME280;59081;42.706;23.306;2023-09-19T04:41:53;95559.75;;;19.04;71.74
43934;BME280;59081;42.706;23.306;2023-09-19T04:46:54;95513.78;;;19.20;70.36
43934;BME280;59081;42.706;23.306;2023-09-19T04:51:56;95478.75;;;18.69;71.60
43934;BME280;59081;42.706;23.306;2023-09-19T04:56:56;95526.03;;;19.42;69.15
43934;BME280;59081;42.706;23.306;2023-09-19T05:01:57;95544.38;;;17.72;74.36
43934;BME280;59081;42.706;23.306;2023-09-19T05:06:57;95551.47;;;17.17;77.72
43934;BME280;59081;42.706;23.306;2023-09-19T05:11:58;95537.06;;;17.51;78.23
43934;BME280;59081;42.706;23.306;2023-09-19T05:16:58;95539.31;;;18.39;74.64
43934;BME280;59081;42.706;23.306;2023-09-19T05:21:59;95529.47;;;18.67;70.06
43934;BME280;59081;42.706;23.306;2023-09-19T05:27:00;95491.31;;;17.43;72.70
43934;BME280;59081;42.706;23.306;2023-09-19T05:32:01;95510.13;;;17.00;76.29
43934;BME280;59081;42.706;23.306;2023-09-19T05:37:01;95476.28;;;16.60;76.74
43934;BME280;59081;42.706;23.306;2023-09-19T05:42:03;95383.22;;;15.77;78.11
43934;BME280;59081;42.706;23.306;2023-09-19T05:47:04;95518.00;;;17.02;77.70
43934;BME280;59081;42.706;23.306;2023-09-19T05:52:08;95519.13;;;16.95;76.58
43934;BME280;59081;42.706;23.306;2023-09-19T05:57:08;95522.84;;;16.92;76.57
43934;BME280;59081;42.706;23.306;2023-09-19T06:02:12;95480.91;;;16.54;77.32
43934;BME280;59081;42.706;23.306;2023-09-19T06:07:12;95506.88;;;17.02;77.54
43934;BME280;59081;42.706;23.306;2023-09-19T06:12:13;95365.81;;;16.27;75.83
43934;BME280;59081;42.706;23.306;2023-09-19T06:17:17;95467.41;;;17.13;75.13
43934;BME280;59081;42.706;23.306;2023-09-19T06:22:20;95423.16;;;16.91;74.74
43934;BME280;59081;42.706;23.306;2023-09-19T06:27:20;95502.44;;;17.91;73.27
43934;BME280;59081;42.706;23.306;2023-09-19T06:32:28;95360.22;;;16.93;73.32
43934;BME280;59081;42.706;23.306;2023-09-19T06:37:29;95511.13;;;18.07;72.92
43934;BME280;59081;42.706;23.306;2023-09-19T06:42:30;95447.47;;;17.53;74.17
43934;BME280;59081;42.706;23.306;2023-09-19T06:47:31;95451.19;;;17.73;72.78
43934;BME280;59081;42.706;23.306;2023-09-19T06:52:32;95432.63;;;17.70;72.43
43934;BME280;59081;42.706;23.306;2023-09-19T06:57:35;95452.47;;;18.02;70.79
43934;BME280;59081;42.706;23.306;2023-09-19T07:02:36;95519.81;;;18.39;70.82
43934;BME280;59081;42.706;23.306;2023-09-19T07:07:37;95476.25;;;18.27;69.81
43934;BME280;59081;42.706;23.306;2023-09-19T07:12:37;95388.28;;;17.43;70.57
43934;BME280;59081;42.706;23.306;2023-09-19T07:17:38;95442.09;;;17.88;70.65
43934;BME280;59081;42.706;23.306;2023-09-19T07:22:39;95484.22;;;18.49;69.18
43934;BME280;59081;42.706;23.306;2023-09-19T07:27:41;95417.59;;;18.21;69.05
43934;BME280;59081;42.706;23.306;2023-09-19T07:32:41;95522.88;;;19.00;67.95
43934;BME280;59081;42.706;23.306;2023-09-19T07:37:42;95429.94;;;18.79;66.81
43934;BME280;59081;42.706;23.306;2023-09-19T07:42:42;95513.50;;;19.53;66.43
43934;BME280;59081;42.706;23.306;2023-09-19T07:47:48;95527.72;;;19.69;64.30
43934;BME280;59081;42.706;23.306;2023-09-19T07:52:49;95437.28;;;19.32;64.33
43934;BME280;59081;42.706;23.306;2023-09-19T07:57:53;95446.06;;;19.45;62.40
43934;BME280;59081;42.706;23.306;2023-09-19T08:02:54;95436.28;;;19.75;63.25
43934;BME280;59081;42.706;23.306;2023-09-19T08:07:54;95385.47;;;19.31;63.11
43934;BME280;59081;42.706;23.306;2023-09-19T08:12:56;95369.81;;;18.98;64.46
43934;BME280;59081;42.706;23.306;2023-09-19T08:17:58;95503.94;;;19.79;63.63
43934;BME280;59081;42.706;23.306;2023-09-19T08:22:59;95458.00;;;19.45;64.18
43934;BME280;59081;42.706;23.306;2023-09-19T08:28:00;95497.94;;;20.12;63.73
43934;BME280;59081;42.706;23.306;2023-09-19T08:33:02;95459.75;;;20.04;62.46
43934;BME280;59081;42.706;23.306;2023-09-19T08:38:05;95425.97;;;20.07;61.68
43934;BME280;59081;42.706;23.306;2023-09-19T08:43:06;95500.47;;;20.88;61.35
43934;BME280;59081;42.706;23.306;2023-09-19T08:48:26;95421.84;;;20.55;59.65
43934;BME280;59081;42.706;23.306;2023-09-19T08:53:51;95344.41;;;20.40;59.07
43934;BME280;59081;42.706;23.306;2023-09-19T08:59:00;95387.78;;;20.62;58.35
43934;BME280;59081;42.706;23.306;2023-09-19T09:04:02;95358.53;;;20.00;59.17
43934;BME280;59081;42.706;23.306;2023-09-19T09:09:04;95342.16;;;19.87;59.53
43934;BME280;59081;42.706;23.306;2023-09-19T09:14:06;95473.50;;;21.22;58.62
43934;BME280;59081;42.706;23.306;2023-09-19T09:19:07;95454.00;;;21.44;56.87
43934;BME280;59081;42.706;23.306;2023-09-19T09:24:30;95413.03;;;21.58;56.41
43934;BME280;59081;42.706;23.306;2023-09-19T09:29:50;95440.91;;;21.84;55.95
43934;BME280;59081;42.706;23.306;2023-09-19T09:34:58;95399.19;;;22.25;54.47
43934;BME280;59081;42.706;23.306;2023-09-19T09:40:01;95339.69;;;21.76;54.59
43934;BME280;59081;42.706;23.306;2023-09-19T09:45:20;95388.81;;;21.55;55.97
43934;BME280;59081;42.706;23.306;2023-09-19T09:50:50;95379.19;;;21.84;54.42
43934;BME280;59081;42.706;23.306;2023-09-19T09:56:05;95371.59;;;21.96;54.93
43934;BME280;59081;42.706;23.306;2023-09-19T10:01:06;95430.06;;;22.75;54.32
43934;BME280;59081;42.706;23.306;2023-09-19T10:06:12;95394.88;;;22.46;52.97
43934;BME280;59081;42.706;23.306;2023-09-19T10:11:25;95294.63;;;22.02;53.02
43934;BME280;59081;42.706;23.306;2023-09-19T10:16:31;95421.94;;;22.49;53.28
43934;BME280;59081;42.706;23.306;2023-09-19T10:21:32;95415.81;;;22.68;54.02
43934;BME280;59081;42.706;23.306;2023-09-19T10:26:35;95335.69;;;22.44;53.35
43934;BME280;59081;42.706;23.306;2023-09-19T10:31:38;95361.34;;;23.04;51.49
43934;BME280;59081;42.706;23.306;2023-09-19T10:36:44;95302.22;;;22.57;51.93
43934;BME280;59081;42.706;23.306;2023-09-19T10:41:50;95290.25;;;22.46;52.14
43934;BME280;59081;42.706;23.306;2023-09-19T10:46:54;95350.84;;;23.21;51.24
43934;BME280;59081;42.706;23.306;2023-09-19T10:51:57;95325.13;;;23.01;51.30
43934;BME280;59081;42.706;23.306;2023-09-19T10:57:00;95315.69;;;22.87;50.43
43934;BME280;59081;42.706;23.306;2023-09-19T11:02:17;95360.47;;;23.43;50.98
43934;BME280;59081;42.706;23.306;2023-09-19T11:07:18;95318.34;;;23.32;50.53
43934;BME280;59081;42.706;23.306;2023-09-19T11:17:30;95317.44;;;24.06;48.29
43934;BME280;59081;42.706;23.306;2023-09-19T11:33:19;95282.50;;;23.54;49.25
43934;BME280;59081;42.706;23.306;2023-09-19T11:43:44;95284.28;;;24.77;46.77
43934;BME280;59081;42.706;23.306;2023-09-19T11:48:48;95324.94;;;25.30;46.50
43934;BME280;59081;42.706;23.306;2023-09-19T11:53:51;95332.50;;;24.98;46.27
43934;BME280;59081;42.706;23.306;2023-09-19T11:58:53;95337.56;;;25.05;46.70
43934;BME280;59081;42.706;23.306;2023-09-19T12:03:56;95314.34;;;25.18;45.62
43934;BME280;59081;42.706;23.306;2023-09-19T12:08:58;95185.97;;;24.98;45.00
43934;BME280;59081;42.706;23.306;2023-09-19T12:14:00;95256.28;;;26.16;43.55
43934;BME280;59081;42.706;23.306;2023-09-19T12:19:20;95294.56;;;26.89;41.91
43934;BME280;59081;42.706;23.306;2023-09-19T12:24:22;95231.19;;;26.71;41.20
43934;BME280;59081;42.706;23.306;2023-09-19T12:29:22;95291.06;;;26.56;41.66
43934;BME280;59081;42.706;23.306;2023-09-19T12:34:25;95172.19;;;26.54;41.09
43934;BME280;59081;42.706;23.306;2023-09-19T12:39:28;95208.50;;;26.77;40.23
43934;BME280;59081;42.706;23.306;2023-09-19T12:44:30;95204.06;;;26.23;41.72
43934;BME280;59081;42.706;23.306;2023-09-19T12:49:30;95215.03;;;26.98;40.62
43934;BME280;59081;42.706;23.306;2023-09-19T12:54:41;95242.28;;;28.24;38.44
43934;BME280;59081;42.706;23.306;2023-09-19T12:59:43;95180.06;;;27.69;37.73
43934;BME280;59081;42.706;23.306;2023-09-19T13:04:52;95160.16;;;27.61;37.80
43934;BME280;59081;42.706;23.306;2023-09-19T13:10:03;95193.50;;;28.67;37.01
43934;BME280;59081;42.706;23.306;2023-09-19T13:15:11;95254.72;;;28.41;37.80
43934;BME280;59081;42.706;23.306;2023-09-19T13:20:24;95177.66;;;29.00;36.42
43934;BME280;59081;42.706;23.306;2023-09-19T13:25:27;95185.88;;;28.83;35.68
43934;BME280;59081;42.706;23.306;2023-09-19T13:30:37;95169.88;;;29.44;35.09
43934;BME280;59081;42.706;23.306;2023-09-19T13:35:42;95202.91;;;29.85;34.93
43934;BME280;59081;42.706;23.306;2023-09-19T13:40:43;95152.78;;;29.21;35.44
43934;BME280;59081;42.706;23.306;2023-09-19T13:45:43;95218.63;;;29.86;34.98
43934;BME280;59081;42.706;23.306;2023-09-19T13:50:44;95149.19;;;30.18;33.54
43934;BME280;59081;42.706;23.306;2023-09-19T13:55:45;95171.25;;;29.43;35.24
43934;BME280;59081;42.706;23.306;2023-09-19T14:00:46;95152.06;;;28.28;37.35
43934;BME280;59081;42.706;23.306;2023-09-19T14:05:47;95209.88;;;29.18;36.75
43934;BME280;59081;42.706;23.306;2023-09-19T14:10:48;95136.94;;;29.26;35.46
43934;BME280;59081;42.706;23.306;2023-09-19T14:15:48;95224.19;;;30.07;34.42
43934;BME280;59081;42.706;23.306;2023-09-19T14:20:49;95220.44;;;30.42;34.09
43934;BME280;59081;42.706;23.306;2023-09-19T14:31:24;95201.72;;;29.58;35.41
43934;BME280;59081;42.706;23.306;2023-09-19T14:41:36;95145.81;;;28.01;37.43
43934;BME280;59081;42.706;23.306;2023-09-19T14:46:36;95189.47;;;28.55;38.12
43934;BME280;59081;42.706;23.306;2023-09-19T14:51:38;95075.06;;;27.80;37.78
43934;BME280;59081;42.706;23.306;2023-09-19T14:56:42;95171.84;;;28.20;38.28
43934;BME280;59081;42.706;23.306;2023-09-19T15:01:43;95076.03;;;26.60;40.21
43934;BME280;59081;42.706;23.306;2023-09-19T15:06:44;95179.91;;;27.41;40.04
43934;BME280;59081;42.706;23.306;2023-09-19T15:11:45;95167.38;;;26.89;41.18
43934;BME280;59081;42.706;23.306;2023-09-19T15:49:14;95044.25;;;24.66;45.02
43934;BME280;59081;42.706;23.306;2023-09-19T15:59:25;95175.81;;;25.46;44.87
43934;BME280;59081;42.706;23.306;2023-09-19T16:04:26;95141.41;;;25.15;45.61
43934;BME280;59081;42.706;23.306;2023-09-19T16:09:27;95065.66;;;24.55;45.74
43934;BME280;59081;42.706;23.306;2023-09-19T16:14:28;95157.38;;;24.70;46.74
43934;BME280;59081;42.706;23.306;2023-09-19T16:24:36;95189.06;;;24.76;47.57
43934;BME280;59081;42.706;23.306;2023-09-19T16:29:37;95198.28;;;24.76;47.48
43934;BME280;59081;42.706;23.306;2023-09-19T16:34:38;95193.72;;;24.49;48.77
43934;BME280;59081;42.706;23.306;2023-09-19T16:44:56;95120.47;;;24.06;48.51
43934;BME280;59081;42.706;23.306;2023-09-19T18:12:35;95096.81;;;21.06;62.16
43934;BME280;59081;42.706;23.306;2023-09-19T18:43:28;95206.25;;;20.97;62.44
43934;BME280;59081;42.706;23.306;2023-09-19T18:48:29;95284.56;;;21.34;62.49
43934;BME280;59081;42.706;23.306;2023-09-19T18:53:35;95218.91;;;20.70;62.74
43934;BME280;59081;42.706;23.306;2023-09-19T18:58:36;95133.72;;;20.23;63.78
43934;BME280;59081;42.706;23.306;2023-09-19T19:03:38;95295.81;;;21.57;61.69
43934;BME280;59081;42.706;23.306;2023-09-19T19:08:41;95188.84;;;20.65;61.58
43934;BME280;59081;42.706;23.306;2023-09-19T19:13:45;95152.19;;;20.09;62.36
43934;BME280;59081;42.706;23.306;2023-09-19T19:18:55;95247.41;;;20.80;62.14
43934;BME280;59081;42.706;23.306;2023-09-19T19:23:58;95297.66;;;20.95;62.43
43934;BME280;59081;42.706;23.306;2023-09-19T19:29:03;95299.13;;;20.84;62.82
43934;BME280;59081;42.706;23.306;2023-09-19T19:34:09;95184.09;;;19.92;63.12
43934;BME280;59081;42.706;23.306;2023-09-19T19:39:11;95158.63;;;19.47;64.16
43934;BME280;59081;42.706;23.306;2023-09-19T19:44:16;95333.81;;;20.56;64.20
43934;BME280;59081;42.706;23.306;2023-09-19T19:49:19;95350.75;;;20.41;64.68
43934;BME280;59081;42.706;23.306;2023-09-19T19:54:23;95339.59;;;20.46;64.36
43934;BME280;59081;42.706;23.306;2023-09-19T19:59:24;95232.47;;;19.66;63.88
43934;BME280;59081;42.706;23.306;2023-09-19T20:04:25;95273.19;;;20.10;63.21
43934;BME280;59081;42.706;23.306;2023-09-19T20:09:27;95258.59;;;19.95;63.88
43934;BME280;59081;42.706;23.306;2023-09-19T20:14:30;95391.47;;;20.42;70.99
43934;BME280;59081;42.706;23.306;2023-09-19T20:19:37;95514.53;;;20.16;79.57
43934;BME280;59081;42.706;23.306;2023-09-19T20:24:41;95466.31;;;18.55;92.31
43934;BME280;59081;42.706;23.306;2023-09-19T20:29:50;95526.53;;;18.32;99.88
43934;BME280;59081;42.706;23.306;2023-09-19T20:34:57;95503.88;;;18.01;100.00
43934;BME280;59081;42.706;23.306;2023-09-19T20:40:00;95450.72;;;17.51;100.00
43934;BME280;59081;42.706;23.306;2023-09-19T20:45:06;95414.78;;;17.15;100.00
43934;BME280;59081;42.706;23.306;2023-09-19T20:50:08;95387.72;;;16.67;100.00
43934;BME280;59081;42.706;23.306;2023-09-19T20:55:09;95487.59;;;17.22;100.00
43934;BME280;59081;42.706;23.306;2023-09-19T21:00:10;95584.06;;;17.58;100.00
43934;BME280;59081;42.706;23.306;2023-09-19T21:05:11;95513.47;;;17.14;100.00
43934;BME280;59081;42.706;23.306;2023-09-19T21:10:12;95444.97;;;16.83;100.00
43934;BME280;59081;42.706;23.306;2023-09-19T21:15:15;95556.84;;;17.53;100.00
43934;BME280;59081;42.706;23.306;2023-09-19T21:20:17;95519.75;;;17.23;100.00
43934;BME280;59081;42.706;23.306;2023-09-19T21:25:22;95473.00;;;17.03;100.00
43934;BME280;59081;42.706;23.306;2023-09-19T21:30:23;95350.16;;;16.39;100.00
43934;BME280;59081;42.706;23.306;2023-09-19T21:35:23;95288.47;;;15.84;100.00
43934;BME280;59081;42.706;23.306;2023-09-19T21:40:24;95257.00;;;15.87;100.00
43934;BME280;59081;42.706;23.306;2023-09-19T21:45:24;95307.16;;;16.16;100.00
43934;BME280;59081;42.706;23.306;2023-09-19T21:50:25;95384.38;;;16.54;100.00
43934;BME280;59081;42.706;23.306;2023-09-19T21:55:27;95370.94;;;16.53;100.00
43934;BME280;59081;42.706;23.306;2023-09-19T22:00:27;95422.00;;;16.74;100.00
43934;BME280;59081;42.706;23.306;2023-09-19T22:05:35;95283.53;;;15.88;100.00
43934;BME280;59081;42.706;23.306;2023-09-19T22:10:43;95427.63;;;16.88;100.00
43934;BME280;59081;42.706;23.306;2023-09-19T22:15:44;95313.25;;;16.06;100.00
43934;BME280;59081;42.706;23.306;2023-09-19T22:20:45;95409.06;;;16.94;100.00
43934;BME280;59081;42.706;23.306;2023-09-19T22:25:46;95462.06;;;17.24;100.00
43934;BME280;59081;42.706;23.306;2023-09-19T22:30:47;95351.41;;;16.29;100.00
43934;BME280;59081;42.706;23.306;2023-09-19T22:35:51;95459.31;;;17.15;100.00
43934;BME280;59081;42.706;23.306;2023-09-19T22:40:52;95417.59;;;16.91;100.00
43934;BME280;59081;42.706;23.306;2023-09-19T22:45:55;95455.28;;;17.16;100.00
43934;BME280;59081;42.706;23.306;2023-09-19T22:50:55;95346.00;;;16.34;100.00
43934;BME280;59081;42.706;23.306;2023-09-19T22:56:04;95283.78;;;15.99;100.00
43934;BME280;59081;42.706;23.306;2023-09-19T23:01:12;95439.72;;;17.33;100.00
43934;BME280;59081;42.706;23.306;2023-09-19T23:06:27;95390.72;;;17.12;100.00
43934;BME280;59081;42.706;23.306;2023-09-19T23:11:30;95331.28;;;16.76;100.00
43934;BME280;59081;42.706;23.306;2023-09-19T23:16:32;95442.00;;;17.58;100.00
43934;BME280;59081;42.706;23.306;2023-09-19T23:21:36;95274.03;;;16.84;100.00
43934;BME280;59081;42.706;23.306;2023-09-19T23:26:44;95292.69;;;17.08;100.00
43934;BME280;59081;42.706;23.306;2023-09-19T23:31:46;95289.53;;;17.15;100.00
43934;BME280;59081;42.706;23.306;2023-09-19T23:36:46;95278.59;;;17.11;100.00
43934;BME280;59081;42.706;23.306;2023-09-19T23:41:46;95423.84;;;18.16;100.00
43934;BME280;59081;42.706;23.306;2023-09-19T23:46:47;95278.72;;;17.31;100.00
43934;BME280;59081;42.706;23.306;2023-09-19T23:51:55;95396.53;;;18.05;100.00
43934;BME280;59081;42.706;23.306;2023-09-19T23:56:56;95350.59;;;17.71;100.00
